sensor_id;sensor_type;location;lat;lon;timestamp;P1;durP1;ratioP1;P2;durP2;ratioP2
35891;SDS011;21993;42.672;23.296;2024-02-26T00:01:35;20.60;;;10.80;;
35891;SDS011;21993;42.672;23.296;2024-02-26T00:04:01;21.90;;;11.57;;
35891;SDS011;21993;42.672;23.296;2024-02-26T00:06:28;17.40;;;11.27;;
35891;SDS011;21993;42.672;23.296;2024-02-26T00:08:54;19.90;;;12.20;;
35891;SDS011;21993;42.672;23.296;2024-02-26T00:11:19;21.57;;;11.80;;
35891;SDS011;21993;42.672;23.296;2024-02-26T00:13:45;21.93;;;12.10;;
35891;SDS011;21993;42.672;23.296;2024-02-26T00:16:11;18.27;;;11.73;;
35891;SDS011;21993;42.672;23.296;2024-02-26T00:18:36;15.93;;;10.43;;
35891;SDS011;21993;42.672;23.296;2024-02-26T00:21:02;18.27;;;10.90;;
35891;SDS011;21993;42.672;23.296;2024-02-26T00:23:27;23.03;;;11.13;;
35891;SDS011;21993;42.672;23.296;2024-02-26T00:25:53;16.40;;;10.83;;
35891;SDS011;21993;42.672;23.296;2024-02-26T00:28:19;18.63;;;10.60;;
35891;SDS011;21993;42.672;23.296;2024-02-26T00:30:45;17.53;;;11.33;;
35891;SDS011;21993;42.672;23.296;2024-02-26T00:33:11;17.13;;;10.53;;
35891;SDS011;21993;42.672;23.296;2024-02-26T00:35:37;22.83;;;14.27;;
35891;SDS011;21993;42.672;23.296;2024-02-26T00:38:03;23.03;;;12.97;;
35891;SDS011;21993;42.672;23.296;2024-02-26T00:40:29;18.40;;;10.97;;
35891;SDS011;21993;42.672;23.296;2024-02-26T00:42:55;17.50;;;11.73;;
35891;SDS011;21993;42.672;23.296;2024-02-26T00:45:21;22.37;;;12.77;;
35891;SDS011;21993;42.672;23.296;2024-02-26T00:47:47;19.33;;;11.90;;
35891;SDS011;21993;42.672;23.296;2024-02-26T00:50:14;19.73;;;11.90;;
35891;SDS011;21993;42.672;23.296;2024-02-26T00:52:40;19.37;;;12.87;;
35891;SDS011;21993;42.672;23.296;2024-02-26T00:55:05;26.07;;;12.97;;
35891;SDS011;21993;42.672;23.296;2024-02-26T00:57:31;19.70;;;12.10;;
35891;SDS011;21993;42.672;23.296;2024-02-26T00:59:57;23.60;;;13.50;;
35891;SDS011;21993;42.672;23.296;2024-02-26T01:02:24;21.27;;;12.27;;
35891;SDS011;21993;42.672;23.296;2024-02-26T01:04:49;19.40;;;12.10;;
35891;SDS011;21993;42.672;23.296;2024-02-26T01:07:15;20.37;;;12.57;;
35891;SDS011;21993;42.672;23.296;2024-02-26T01:09:40;19.43;;;11.57;;
35891;SDS011;21993;42.672;23.296;2024-02-26T01:12:07;21.23;;;12.23;;
35891;SDS011;21993;42.672;23.296;2024-02-26T01:14:32;19.23;;;11.70;;
35891;SDS011;21993;42.672;23.296;2024-02-26T01:16:58;16.87;;;11.40;;
35891;SDS011;21993;42.672;23.296;2024-02-26T01:19:24;19.70;;;11.67;;
35891;SDS011;21993;42.672;23.296;2024-02-26T01:21:50;18.30;;;11.57;;
35891;SDS011;21993;42.672;23.296;2024-02-26T01:24:15;19.43;;;12.93;;
35891;SDS011;21993;42.672;23.296;2024-02-26T01:26:41;18.93;;;12.27;;
35891;SDS011;21993;42.672;23.296;2024-02-26T01:29:06;20.63;;;11.53;;
35891;SDS011;21993;42.672;23.296;2024-02-26T01:31:32;25.93;;;12.90;;
35891;SDS011;21993;42.672;23.296;2024-02-26T01:33:57;18.07;;;11.63;;
35891;SDS011;21993;42.672;23.296;2024-02-26T01:36:23;19.00;;;11.93;;
35891;SDS011;21993;42.672;23.296;2024-02-26T01:38:48;16.20;;;10.90;;
35891;SDS011;21993;42.672;23.296;2024-02-26T01:41:14;19.20;;;12.30;;
35891;SDS011;21993;42.672;23.296;2024-02-26T01:43:40;18.87;;;10.83;;
35891;SDS011;21993;42.672;23.296;2024-02-26T01:46:05;23.23;;;12.00;;
35891;SDS011;21993;42.672;23.296;2024-02-26T01:48:38;13.63;;;9.93;;
35891;SDS011;21993;42.672;23.296;2024-02-26T01:51:07;18.60;;;10.77;;
35891;SDS011;21993;42.672;23.296;2024-02-26T01:53:34;19.07;;;10.43;;
35891;SDS011;21993;42.672;23.296;2024-02-26T01:56:00;14.27;;;9.83;;
35891;SDS011;21993;42.672;23.296;2024-02-26T01:58:26;18.13;;;10.90;;
35891;SDS011;21993;42.672;23.296;2024-02-26T02:00:53;18.10;;;10.90;;
35891;SDS011;21993;42.672;23.296;2024-02-26T02:03:18;19.07;;;11.03;;
35891;SDS011;21993;42.672;23.296;2024-02-26T02:05:44;19.33;;;11.33;;
35891;SDS011;21993;42.672;23.296;2024-02-26T02:08:10;14.60;;;10.27;;
35891;SDS011;21993;42.672;23.296;2024-02-26T02:10:39;16.70;;;9.97;;
35891;SDS011;21993;42.672;23.296;2024-02-26T02:13:07;14.73;;;10.30;;
35891;SDS011;21993;42.672;23.296;2024-02-26T02:15:33;18.63;;;9.70;;
35891;SDS011;21993;42.672;23.296;2024-02-26T02:17:58;15.00;;;10.20;;
35891;SDS011;21993;42.672;23.296;2024-02-26T02:20:34;14.77;;;9.50;;
35891;SDS011;21993;42.672;23.296;2024-02-26T02:23:00;18.30;;;10.23;;
35891;SDS011;21993;42.672;23.296;2024-02-26T02:25:26;18.17;;;10.87;;
35891;SDS011;21993;42.672;23.296;2024-02-26T02:27:51;21.53;;;10.60;;
35891;SDS011;21993;42.672;23.296;2024-02-26T02:30:23;18.53;;;9.80;;
35891;SDS011;21993;42.672;23.296;2024-02-26T02:32:51;16.47;;;10.57;;
35891;SDS011;21993;42.672;23.296;2024-02-26T02:35:18;16.07;;;10.93;;
35891;SDS011;21993;42.672;23.296;2024-02-26T02:37:43;18.67;;;11.97;;
35891;SDS011;21993;42.672;23.296;2024-02-26T02:40:09;19.23;;;12.23;;
35891;SDS011;21993;42.672;23.296;2024-02-26T02:42:34;18.50;;;11.67;;
35891;SDS011;21993;42.672;23.296;2024-02-26T02:45:00;23.57;;;12.80;;
35891;SDS011;21993;42.672;23.296;2024-02-26T02:47:26;20.13;;;11.30;;
35891;SDS011;21993;42.672;23.296;2024-02-26T02:49:51;20.50;;;12.00;;
35891;SDS011;21993;42.672;23.296;2024-02-26T02:52:17;19.20;;;12.00;;
35891;SDS011;21993;42.672;23.296;2024-02-26T02:54:42;16.20;;;11.27;;
35891;SDS011;21993;42.672;23.296;2024-02-26T02:57:08;17.03;;;10.33;;
35891;SDS011;21993;42.672;23.296;2024-02-26T02:59:34;20.27;;;11.43;;
35891;SDS011;21993;42.672;23.296;2024-02-26T03:02:00;22.73;;;13.67;;
35891;SDS011;21993;42.672;23.296;2024-02-26T03:04:26;18.93;;;12.20;;
35891;SDS011;21993;42.672;23.296;2024-02-26T03:06:51;17.97;;;11.93;;
35891;SDS011;21993;42.672;23.296;2024-02-26T03:09:17;23.23;;;13.03;;
35891;SDS011;21993;42.672;23.296;2024-02-26T03:11:42;21.70;;;12.00;;
35891;SDS011;21993;42.672;23.296;2024-02-26T03:14:08;17.70;;;11.33;;
35891;SDS011;21993;42.672;23.296;2024-02-26T03:16:34;20.50;;;10.50;;
35891;SDS011;21993;42.672;23.296;2024-02-26T03:19:00;21.03;;;11.43;;
35891;SDS011;21993;42.672;23.296;2024-02-26T03:21:26;19.10;;;10.63;;
35891;SDS011;21993;42.672;23.296;2024-02-26T03:23:52;18.90;;;10.73;;
35891;SDS011;21993;42.672;23.296;2024-02-26T03:26:18;15.87;;;9.90;;
35891;SDS011;21993;42.672;23.296;2024-02-26T03:28:44;16.93;;;10.63;;
35891;SDS011;21993;42.672;23.296;2024-02-26T03:31:09;17.23;;;10.03;;
35891;SDS011;21993;42.672;23.296;2024-02-26T03:33:35;15.67;;;10.70;;
35891;SDS011;21993;42.672;23.296;2024-02-26T03:36:01;18.63;;;10.90;;
35891;SDS011;21993;42.672;23.296;2024-02-26T03:38:28;15.53;;;10.43;;
35891;SDS011;21993;42.672;23.296;2024-02-26T03:40:54;17.13;;;11.30;;
35891;SDS011;21993;42.672;23.296;2024-02-26T03:43:19;24.20;;;10.37;;
35891;SDS011;21993;42.672;23.296;2024-02-26T03:45:45;17.97;;;10.93;;
35891;SDS011;21993;42.672;23.296;2024-02-26T03:48:10;19.60;;;11.33;;
35891;SDS011;21993;42.672;23.296;2024-02-26T03:50:36;17.90;;;10.90;;
35891;SDS011;21993;42.672;23.296;2024-02-26T03:53:01;18.73;;;10.77;;
35891;SDS011;21993;42.672;23.296;2024-02-26T03:55:27;19.63;;;12.43;;
35891;SDS011;21993;42.672;23.296;2024-02-26T03:57:52;20.07;;;11.60;;
35891;SDS011;21993;42.672;23.296;2024-02-26T04:00:18;19.33;;;11.50;;
35891;SDS011;21993;42.672;23.296;2024-02-26T04:02:44;23.47;;;12.50;;
35891;SDS011;21993;42.672;23.296;2024-02-26T04:05:11;17.70;;;11.60;;
35891;SDS011;21993;42.672;23.296;2024-02-26T04:07:38;22.50;;;12.23;;
35891;SDS011;21993;42.672;23.296;2024-02-26T04:10:08;22.20;;;12.60;;
35891;SDS011;21993;42.672;23.296;2024-02-26T04:12:40;18.23;;;11.93;;
35891;SDS011;21993;42.672;23.296;2024-02-26T04:15:07;21.90;;;12.63;;
35891;SDS011;21993;42.672;23.296;2024-02-26T04:17:34;23.97;;;12.20;;
35891;SDS011;21993;42.672;23.296;2024-02-26T04:19:59;20.67;;;13.20;;
35891;SDS011;21993;42.672;23.296;2024-02-26T04:22:25;20.93;;;13.40;;
35891;SDS011;21993;42.672;23.296;2024-02-26T04:24:50;20.37;;;11.47;;
35891;SDS011;21993;42.672;23.296;2024-02-26T04:27:16;19.67;;;12.03;;
35891;SDS011;21993;42.672;23.296;2024-02-26T04:29:41;26.93;;;13.03;;
35891;SDS011;21993;42.672;23.296;2024-02-26T04:32:07;21.87;;;13.07;;
35891;SDS011;21993;42.672;23.296;2024-02-26T04:34:33;26.90;;;13.80;;
35891;SDS011;21993;42.672;23.296;2024-02-26T04:36:58;24.17;;;13.10;;
35891;SDS011;21993;42.672;23.296;2024-02-26T04:39:24;23.47;;;14.33;;
35891;SDS011;21993;42.672;23.296;2024-02-26T04:41:49;22.33;;;12.70;;
35891;SDS011;21993;42.672;23.296;2024-02-26T04:44:15;24.03;;;14.00;;
35891;SDS011;21993;42.672;23.296;2024-02-26T04:46:40;26.00;;;14.77;;
35891;SDS011;21993;42.672;23.296;2024-02-26T04:49:06;21.00;;;13.70;;
35891;SDS011;21993;42.672;23.296;2024-02-26T04:51:32;25.47;;;14.80;;
35891;SDS011;21993;42.672;23.296;2024-02-26T04:53:57;20.53;;;13.60;;
35891;SDS011;21993;42.672;23.296;2024-02-26T04:56:23;21.97;;;13.43;;
35891;SDS011;21993;42.672;23.296;2024-02-26T04:58:48;23.97;;;14.90;;
35891;SDS011;21993;42.672;23.296;2024-02-26T05:01:15;22.07;;;13.47;;
35891;SDS011;21993;42.672;23.296;2024-02-26T05:03:42;28.97;;;14.77;;
35891;SDS011;21993;42.672;23.296;2024-02-26T05:06:08;28.13;;;15.80;;
35891;SDS011;21993;42.672;23.296;2024-02-26T05:08:34;25.33;;;17.47;;
35891;SDS011;21993;42.672;23.296;2024-02-26T05:11:01;30.67;;;17.30;;
35891;SDS011;21993;42.672;23.296;2024-02-26T05:13:28;27.33;;;16.40;;
35891;SDS011;21993;42.672;23.296;2024-02-26T05:15:54;26.57;;;16.33;;
35891;SDS011;21993;42.672;23.296;2024-02-26T05:18:19;26.03;;;16.67;;
35891;SDS011;21993;42.672;23.296;2024-02-26T05:20:45;26.67;;;16.70;;
35891;SDS011;21993;42.672;23.296;2024-02-26T05:23:11;26.00;;;16.30;;
35891;SDS011;21993;42.672;23.296;2024-02-26T05:25:36;26.50;;;17.67;;
35891;SDS011;21993;42.672;23.296;2024-02-26T05:28:02;28.27;;;17.17;;
35891;SDS011;21993;42.672;23.296;2024-02-26T05:30:29;32.30;;;17.93;;
35891;SDS011;21993;42.672;23.296;2024-02-26T05:32:54;25.60;;;16.30;;
35891;SDS011;21993;42.672;23.296;2024-02-26T05:35:20;30.60;;;17.53;;
35891;SDS011;21993;42.672;23.296;2024-02-26T05:37:45;31.87;;;18.23;;
35891;SDS011;21993;42.672;23.296;2024-02-26T05:40:11;26.97;;;16.07;;
35891;SDS011;21993;42.672;23.296;2024-02-26T05:42:37;31.33;;;16.67;;
35891;SDS011;21993;42.672;23.296;2024-02-26T05:45:03;28.23;;;16.60;;
35891;SDS011;21993;42.672;23.296;2024-02-26T05:47:34;27.30;;;16.60;;
35891;SDS011;21993;42.672;23.296;2024-02-26T05:50:00;26.60;;;16.77;;
35891;SDS011;21993;42.672;23.296;2024-02-26T05:52:26;26.00;;;17.10;;
35891;SDS011;21993;42.672;23.296;2024-02-26T05:54:53;33.40;;;18.13;;
35891;SDS011;21993;42.672;23.296;2024-02-26T05:57:19;31.40;;;17.97;;
35891;SDS011;21993;42.672;23.296;2024-02-26T05:59:44;31.20;;;19.30;;
35891;SDS011;21993;42.672;23.296;2024-02-26T06:02:10;34.53;;;19.77;;
35891;SDS011;21993;42.672;23.296;2024-02-26T06:04:36;31.70;;;19.27;;
35891;SDS011;21993;42.672;23.296;2024-02-26T06:07:01;34.23;;;19.77;;
35891;SDS011;21993;42.672;23.296;2024-02-26T06:09:27;28.57;;;18.63;;
35891;SDS011;21993;42.672;23.296;2024-02-26T06:11:53;30.63;;;19.93;;
35891;SDS011;21993;42.672;23.296;2024-02-26T06:14:19;33.60;;;20.33;;
35891;SDS011;21993;42.672;23.296;2024-02-26T06:16:45;32.40;;;19.53;;
35891;SDS011;21993;42.672;23.296;2024-02-26T06:19:11;33.10;;;20.57;;
35891;SDS011;21993;42.672;23.296;2024-02-26T06:21:37;34.90;;;20.70;;
35891;SDS011;21993;42.672;23.296;2024-02-26T06:24:02;32.13;;;18.93;;
35891;SDS011;21993;42.672;23.296;2024-02-26T06:26:28;31.33;;;20.53;;
35891;SDS011;21993;42.672;23.296;2024-02-26T06:28:54;34.13;;;21.20;;
35891;SDS011;21993;42.672;23.296;2024-02-26T06:31:21;31.33;;;18.90;;
35891;SDS011;21993;42.672;23.296;2024-02-26T06:33:48;32.50;;;20.33;;
35891;SDS011;21993;42.672;23.296;2024-02-26T06:36:14;29.90;;;19.23;;
35891;SDS011;21993;42.672;23.296;2024-02-26T06:38:40;38.43;;;20.40;;
35891;SDS011;21993;42.672;23.296;2024-02-26T06:41:06;35.60;;;19.53;;
35891;SDS011;21993;42.672;23.296;2024-02-26T06:43:34;41.30;;;19.13;;
35891;SDS011;21993;42.672;23.296;2024-02-26T06:45:59;29.47;;;18.70;;
35891;SDS011;21993;42.672;23.296;2024-02-26T06:48:25;28.07;;;17.47;;
35891;SDS011;21993;42.672;23.296;2024-02-26T06:50:51;32.30;;;17.57;;
35891;SDS011;21993;42.672;23.296;2024-02-26T06:53:16;29.37;;;18.20;;
35891;SDS011;21993;42.672;23.296;2024-02-26T06:55:42;28.43;;;17.50;;
35891;SDS011;21993;42.672;23.296;2024-02-26T06:58:08;30.17;;;16.80;;
35891;SDS011;21993;42.672;23.296;2024-02-26T07:00:34;32.00;;;16.00;;
35891;SDS011;21993;42.672;23.296;2024-02-26T07:03:00;26.00;;;14.87;;
35891;SDS011;21993;42.672;23.296;2024-02-26T07:05:26;25.17;;;15.07;;
35891;SDS011;21993;42.672;23.296;2024-02-26T07:07:52;19.50;;;12.47;;
35891;SDS011;21993;42.672;23.296;2024-02-26T07:10:18;30.73;;;14.10;;
35891;SDS011;21993;42.672;23.296;2024-02-26T07:12:44;20.33;;;12.80;;
35891;SDS011;21993;42.672;23.296;2024-02-26T07:15:09;18.33;;;11.37;;
35891;SDS011;21993;42.672;23.296;2024-02-26T07:17:35;24.63;;;12.33;;
35891;SDS011;21993;42.672;23.296;2024-02-26T07:20:01;20.73;;;11.50;;
35891;SDS011;21993;42.672;23.296;2024-02-26T07:22:29;19.90;;;13.23;;
35891;SDS011;21993;42.672;23.296;2024-02-26T07:24:55;20.23;;;13.70;;
35891;SDS011;21993;42.672;23.296;2024-02-26T07:27:20;19.30;;;12.27;;
35891;SDS011;21993;42.672;23.296;2024-02-26T07:29:46;18.97;;;12.20;;
35891;SDS011;21993;42.672;23.296;2024-02-26T07:32:15;23.37;;;11.00;;
35891;SDS011;21993;42.672;23.296;2024-02-26T07:34:41;23.37;;;12.07;;
35891;SDS011;21993;42.672;23.296;2024-02-26T07:37:09;21.63;;;12.67;;
35891;SDS011;21993;42.672;23.296;2024-02-26T07:39:35;21.67;;;10.97;;
35891;SDS011;21993;42.672;23.296;2024-02-26T07:42:01;20.00;;;12.83;;
35891;SDS011;21993;42.672;23.296;2024-02-26T07:44:27;21.40;;;12.60;;
35891;SDS011;21993;42.672;23.296;2024-02-26T07:46:53;22.23;;;12.27;;
35891;SDS011;21993;42.672;23.296;2024-02-26T07:49:18;24.40;;;13.00;;
35891;SDS011;21993;42.672;23.296;2024-02-26T07:51:44;19.70;;;13.33;;
35891;SDS011;21993;42.672;23.296;2024-02-26T07:54:09;26.67;;;15.17;;
35891;SDS011;21993;42.672;23.296;2024-02-26T07:56:35;26.63;;;14.57;;
35891;SDS011;21993;42.672;23.296;2024-02-26T07:59:00;48.40;;;26.97;;
35891;SDS011;21993;42.672;23.296;2024-02-26T08:01:26;32.07;;;18.50;;
35891;SDS011;21993;42.672;23.296;2024-02-26T08:04:03;30.93;;;16.13;;
35891;SDS011;21993;42.672;23.296;2024-02-26T08:06:29;26.23;;;15.87;;
35891;SDS011;21993;42.672;23.296;2024-02-26T08:08:55;27.20;;;16.37;;
35891;SDS011;21993;42.672;23.296;2024-02-26T08:11:20;47.10;;;16.00;;
35891;SDS011;21993;42.672;23.296;2024-02-26T08:13:46;37.33;;;17.63;;
35891;SDS011;21993;42.672;23.296;2024-02-26T08:16:11;33.27;;;17.80;;
35891;SDS011;21993;42.672;23.296;2024-02-26T08:18:37;30.13;;;18.93;;
35891;SDS011;21993;42.672;23.296;2024-02-26T08:21:02;38.10;;;21.87;;
35891;SDS011;21993;42.672;23.296;2024-02-26T08:23:28;33.70;;;21.10;;
35891;SDS011;21993;42.672;23.296;2024-02-26T08:25:54;40.27;;;23.90;;
35891;SDS011;21993;42.672;23.296;2024-02-26T08:28:19;44.93;;;23.33;;
35891;SDS011;21993;42.672;23.296;2024-02-26T08:30:45;42.33;;;22.80;;
35891;SDS011;21993;42.672;23.296;2024-02-26T08:33:10;36.37;;;22.87;;
35891;SDS011;21993;42.672;23.296;2024-02-26T08:35:36;39.67;;;22.63;;
35891;SDS011;21993;42.672;23.296;2024-02-26T08:38:02;34.23;;;20.73;;
35891;SDS011;21993;42.672;23.296;2024-02-26T08:40:28;37.60;;;23.63;;
35891;SDS011;21993;42.672;23.296;2024-02-26T08:42:54;36.07;;;23.10;;
35891;SDS011;21993;42.672;23.296;2024-02-26T08:45:20;40.73;;;21.87;;
35891;SDS011;21993;42.672;23.296;2024-02-26T08:47:46;54.93;;;23.93;;
35891;SDS011;21993;42.672;23.296;2024-02-26T08:50:11;53.60;;;24.00;;
35891;SDS011;21993;42.672;23.296;2024-02-26T08:52:37;33.27;;;21.80;;
35891;SDS011;21993;42.672;23.296;2024-02-26T08:55:03;39.40;;;24.17;;
35891;SDS011;21993;42.672;23.296;2024-02-26T08:57:30;36.57;;;19.80;;
35891;SDS011;21993;42.672;23.296;2024-02-26T08:59:59;31.87;;;20.00;;
35891;SDS011;21993;42.672;23.296;2024-02-26T09:02:25;35.57;;;20.03;;
35891;SDS011;21993;42.672;23.296;2024-02-26T09:04:51;34.33;;;19.57;;
35891;SDS011;21993;42.672;23.296;2024-02-26T09:07:19;33.13;;;20.07;;
35891;SDS011;21993;42.672;23.296;2024-02-26T09:09:45;40.87;;;20.37;;
35891;SDS011;21993;42.672;23.296;2024-02-26T09:12:10;20.07;;;13.13;;
35891;SDS011;21993;42.672;23.296;2024-02-26T09:14:36;33.93;;;17.33;;
35891;SDS011;21993;42.672;23.296;2024-02-26T09:17:02;21.10;;;9.47;;
35891;SDS011;21993;42.672;23.296;2024-02-26T09:19:27;13.07;;;7.33;;
35891;SDS011;21993;42.672;23.296;2024-02-26T09:21:55;9.53;;;6.50;;
35891;SDS011;21993;42.672;23.296;2024-02-26T09:24:24;9.23;;;5.87;;
35891;SDS011;21993;42.672;23.296;2024-02-26T09:26:50;6.97;;;5.27;;
35891;SDS011;21993;42.672;23.296;2024-02-26T09:29:15;9.23;;;5.30;;
35891;SDS011;21993;42.672;23.296;2024-02-26T09:31:41;14.27;;;6.27;;
35891;SDS011;21993;42.672;23.296;2024-02-26T09:34:08;11.83;;;7.23;;
35891;SDS011;21993;42.672;23.296;2024-02-26T09:36:34;11.07;;;5.97;;
35891;SDS011;21993;42.672;23.296;2024-02-26T09:39:02;12.33;;;7.83;;
35891;SDS011;21993;42.672;23.296;2024-02-26T09:41:28;14.07;;;6.60;;
35891;SDS011;21993;42.672;23.296;2024-02-26T09:43:56;12.57;;;6.13;;
35891;SDS011;21993;42.672;23.296;2024-02-26T09:46:25;5.47;;;4.30;;
35891;SDS011;21993;42.672;23.296;2024-02-26T09:48:51;8.37;;;5.07;;
35891;SDS011;21993;42.672;23.296;2024-02-26T09:51:17;8.57;;;5.33;;
35891;SDS011;21993;42.672;23.296;2024-02-26T09:53:48;8.23;;;5.00;;
35891;SDS011;21993;42.672;23.296;2024-02-26T09:56:19;9.13;;;5.03;;
35891;SDS011;21993;42.672;23.296;2024-02-26T09:58:46;6.40;;;4.90;;
35891;SDS011;21993;42.672;23.296;2024-02-26T10:01:18;14.27;;;5.43;;
35891;SDS011;21993;42.672;23.296;2024-02-26T10:03:46;6.83;;;5.23;;
35891;SDS011;21993;42.672;23.296;2024-02-26T10:06:20;10.57;;;5.10;;
35891;SDS011;21993;42.672;23.296;2024-02-26T10:08:46;8.27;;;5.10;;
35891;SDS011;21993;42.672;23.296;2024-02-26T10:11:12;6.27;;;4.60;;
35891;SDS011;21993;42.672;23.296;2024-02-26T10:13:39;6.10;;;4.60;;
35891;SDS011;21993;42.672;23.296;2024-02-26T10:16:05;8.57;;;4.57;;
35891;SDS011;21993;42.672;23.296;2024-02-26T10:18:50;5.63;;;4.53;;
35891;SDS011;21993;42.672;23.296;2024-02-26T10:21:18;5.30;;;4.33;;
35891;SDS011;21993;42.672;23.296;2024-02-26T10:23:47;5.27;;;4.77;;
35891;SDS011;21993;42.672;23.296;2024-02-26T10:26:31;6.80;;;4.70;;
35891;SDS011;21993;42.672;23.296;2024-02-26T10:28:59;7.53;;;5.30;;
35891;SDS011;21993;42.672;23.296;2024-02-26T10:31:26;9.53;;;5.50;;
35891;SDS011;21993;42.672;23.296;2024-02-26T10:33:52;6.37;;;4.90;;
35891;SDS011;21993;42.672;23.296;2024-02-26T10:36:25;6.80;;;4.63;;
35891;SDS011;21993;42.672;23.296;2024-02-26T10:38:51;7.17;;;4.70;;
35891;SDS011;21993;42.672;23.296;2024-02-26T10:41:18;8.27;;;4.53;;
35891;SDS011;21993;42.672;23.296;2024-02-26T10:43:43;7.00;;;4.30;;
35891;SDS011;21993;42.672;23.296;2024-02-26T10:46:09;6.10;;;4.27;;
35891;SDS011;21993;42.672;23.296;2024-02-26T10:48:35;6.53;;;4.83;;
35891;SDS011;21993;42.672;23.296;2024-02-26T10:51:01;5.53;;;4.20;;
35891;SDS011;21993;42.672;23.296;2024-02-26T10:53:28;7.50;;;4.13;;
35891;SDS011;21993;42.672;23.296;2024-02-26T10:55:57;5.57;;;4.40;;
35891;SDS011;21993;42.672;23.296;2024-02-26T10:58:26;6.63;;;4.70;;
35891;SDS011;21993;42.672;23.296;2024-02-26T11:00:53;11.47;;;4.67;;
35891;SDS011;21993;42.672;23.296;2024-02-26T11:03:21;9.53;;;5.57;;
35891;SDS011;21993;42.672;23.296;2024-02-26T11:05:48;6.77;;;4.60;;
35891;SDS011;21993;42.672;23.296;2024-02-26T11:08:15;5.97;;;4.33;;
35891;SDS011;21993;42.672;23.296;2024-02-26T11:10:43;7.40;;;5.73;;
35891;SDS011;21993;42.672;23.296;2024-02-26T11:13:09;14.13;;;6.17;;
35891;SDS011;21993;42.672;23.296;2024-02-26T11:15:37;5.53;;;4.30;;
35891;SDS011;21993;42.672;23.296;2024-02-26T11:18:04;7.07;;;4.50;;
35891;SDS011;21993;42.672;23.296;2024-02-26T11:20:32;5.97;;;4.30;;
35891;SDS011;21993;42.672;23.296;2024-02-26T11:22:59;6.80;;;4.43;;
35891;SDS011;21993;42.672;23.296;2024-02-26T11:25:25;10.37;;;5.27;;
35891;SDS011;21993;42.672;23.296;2024-02-26T11:27:54;5.30;;;4.50;;
35891;SDS011;21993;42.672;23.296;2024-02-26T11:30:26;8.40;;;4.50;;
35891;SDS011;21993;42.672;23.296;2024-02-26T11:32:55;4.97;;;4.00;;
35891;SDS011;21993;42.672;23.296;2024-02-26T11:35:21;4.40;;;4.00;;
35891;SDS011;21993;42.672;23.296;2024-02-26T11:37:57;6.67;;;4.10;;
35891;SDS011;21993;42.672;23.296;2024-02-26T11:40:26;5.60;;;4.60;;
35891;SDS011;21993;42.672;23.296;2024-02-26T11:42:51;6.97;;;5.03;;
35891;SDS011;21993;42.672;23.296;2024-02-26T11:50:46;7.27;;;4.50;;
35891;SDS011;21993;42.672;23.296;2024-02-26T11:53:26;8.13;;;4.87;;
35891;SDS011;21993;42.672;23.296;2024-02-26T11:58:44;6.43;;;4.47;;
35891;SDS011;21993;42.672;23.296;2024-02-26T12:04:26;8.90;;;4.13;;
35891;SDS011;21993;42.672;23.296;2024-02-26T12:06:57;6.13;;;4.27;;
35891;SDS011;21993;42.672;23.296;2024-02-26T12:09:43;7.23;;;3.83;;
35891;SDS011;21993;42.672;23.296;2024-02-26T12:12:09;8.23;;;4.20;;
35891;SDS011;21993;42.672;23.296;2024-02-26T12:14:39;7.10;;;4.27;;
35891;SDS011;21993;42.672;23.296;2024-02-26T12:17:06;8.17;;;4.23;;
35891;SDS011;21993;42.672;23.296;2024-02-26T12:19:40;7.23;;;4.10;;
35891;SDS011;21993;42.672;23.296;2024-02-26T12:22:07;9.73;;;3.97;;
35891;SDS011;21993;42.672;23.296;2024-02-26T12:24:34;6.80;;;3.60;;
35891;SDS011;21993;42.672;23.296;2024-02-26T12:26:59;7.93;;;3.90;;
35891;SDS011;21993;42.672;23.296;2024-02-26T12:29:25;7.87;;;4.13;;
35891;SDS011;21993;42.672;23.296;2024-02-26T12:31:50;5.97;;;3.90;;
35891;SDS011;21993;42.672;23.296;2024-02-26T12:34:16;7.27;;;3.73;;
35891;SDS011;21993;42.672;23.296;2024-02-26T12:36:42;5.23;;;4.17;;
35891;SDS011;21993;42.672;23.296;2024-02-26T12:39:07;8.63;;;4.33;;
35891;SDS011;21993;42.672;23.296;2024-02-26T12:41:34;5.97;;;4.33;;
35891;SDS011;21993;42.672;23.296;2024-02-26T12:44:00;5.20;;;3.43;;
35891;SDS011;21993;42.672;23.296;2024-02-26T12:46:26;4.83;;;3.60;;
35891;SDS011;21993;42.672;23.296;2024-02-26T12:48:55;5.57;;;4.03;;
35891;SDS011;21993;42.672;23.296;2024-02-26T12:51:23;5.70;;;3.77;;
35891;SDS011;21993;42.672;23.296;2024-02-26T12:53:52;7.87;;;4.23;;
35891;SDS011;21993;42.672;23.296;2024-02-26T12:56:24;5.03;;;3.53;;
35891;SDS011;21993;42.672;23.296;2024-02-26T12:58:52;4.17;;;3.73;;
35891;SDS011;21993;42.672;23.296;2024-02-26T13:01:22;6.50;;;3.63;;
35891;SDS011;21993;42.672;23.296;2024-02-26T13:03:50;5.73;;;3.70;;
35891;SDS011;21993;42.672;23.296;2024-02-26T13:06:18;5.43;;;4.17;;
35891;SDS011;21993;42.672;23.296;2024-02-26T13:08:49;4.90;;;3.10;;
35891;SDS011;21993;42.672;23.296;2024-02-26T13:11:18;5.37;;;3.80;;
35891;SDS011;21993;42.672;23.296;2024-02-26T13:13:47;5.53;;;4.17;;
35891;SDS011;21993;42.672;23.296;2024-02-26T13:16:13;4.20;;;3.53;;
35891;SDS011;21993;42.672;23.296;2024-02-26T13:18:40;4.77;;;3.30;;
35891;SDS011;21993;42.672;23.296;2024-02-26T13:21:10;4.43;;;3.70;;
35891;SDS011;21993;42.672;23.296;2024-02-26T13:23:39;7.53;;;3.57;;
35891;SDS011;21993;42.672;23.296;2024-02-26T13:26:05;5.77;;;3.30;;
35891;SDS011;21993;42.672;23.296;2024-02-26T13:28:31;7.17;;;3.63;;
35891;SDS011;21993;42.672;23.296;2024-02-26T13:30:57;6.37;;;3.63;;
35891;SDS011;21993;42.672;23.296;2024-02-26T13:33:26;6.53;;;3.83;;
35891;SDS011;21993;42.672;23.296;2024-02-26T13:35:54;6.37;;;3.90;;
35891;SDS011;21993;42.672;23.296;2024-02-26T13:38:20;6.40;;;3.87;;
35891;SDS011;21993;42.672;23.296;2024-02-26T13:40:46;6.33;;;3.73;;
35891;SDS011;21993;42.672;23.296;2024-02-26T13:43:12;7.07;;;4.10;;
35891;SDS011;21993;42.672;23.296;2024-02-26T13:45:38;5.70;;;4.10;;
35891;SDS011;21993;42.672;23.296;2024-02-26T13:48:05;5.20;;;3.43;;
35891;SDS011;21993;42.672;23.296;2024-02-26T13:50:32;6.70;;;4.10;;
35891;SDS011;21993;42.672;23.296;2024-02-26T13:52:58;4.40;;;3.40;;
35891;SDS011;21993;42.672;23.296;2024-02-26T13:55:25;6.90;;;3.60;;
35891;SDS011;21993;42.672;23.296;2024-02-26T13:57:53;8.20;;;4.13;;
35891;SDS011;21993;42.672;23.296;2024-02-26T14:00:28;5.97;;;4.03;;
35891;SDS011;21993;42.672;23.296;2024-02-26T14:03:14;5.83;;;3.60;;
35891;SDS011;21993;42.672;23.296;2024-02-26T14:05:41;3.90;;;3.17;;
35891;SDS011;21993;42.672;23.296;2024-02-26T14:08:07;4.67;;;3.47;;
35891;SDS011;21993;42.672;23.296;2024-02-26T14:10:32;4.83;;;3.57;;
35891;SDS011;21993;42.672;23.296;2024-02-26T14:12:58;5.03;;;3.20;;
35891;SDS011;21993;42.672;23.296;2024-02-26T14:15:24;3.70;;;3.07;;
35891;SDS011;21993;42.672;23.296;2024-02-26T14:17:51;5.20;;;3.77;;
35891;SDS011;21993;42.672;23.296;2024-02-26T14:20:23;5.83;;;3.60;;
35891;SDS011;21993;42.672;23.296;2024-02-26T14:22:50;4.20;;;3.23;;
35891;SDS011;21993;42.672;23.296;2024-02-26T14:25:18;5.70;;;3.70;;
35891;SDS011;21993;42.672;23.296;2024-02-26T14:27:45;5.13;;;3.37;;